createdAt,value
2018-08-13T00:00:02.995Z,16.92
2018-08-13T00:01:02.993Z,16.96
2018-08-13T00:02:02.964Z,16.99
2018-08-13T00:03:02.952Z,16.92
2018-08-13T00:04:02.932Z,16.88
2018-08-13T00:05:02.929Z,16.92
2018-08-13T00:06:02.936Z,16.86
2018-08-13T00:07:02.908Z,17.00
2018-08-13T00:08:02.891Z,16.85
2018-08-13T00:09:02.884Z,16.98
2018-08-13T00:10:02.862Z,16.83
2018-08-13T00:11:02.873Z,16.90
2018-08-13T00:12:02.854Z,16.92
2018-08-13T00:13:02.826Z,16.89
2018-08-13T00:14:02.863Z,16.88
2018-08-13T00:15:02.812Z,16.78
2018-08-13T00:16:02.814Z,16.78
2018-08-13T00:17:02.788Z,17.00
2018-08-13T00:18:02.769Z,16.74
2018-08-13T00:19:02.755Z,16.89
2018-08-13T00:20:02.754Z,16.78
2018-08-13T00:21:02.762Z,16.86
2018-08-13T00:22:02.723Z,16.86
2018-08-13T00:23:02.708Z,16.90
2018-08-13T00:24:02.703Z,16.88
2018-08-13T00:25:02.695Z,16.73
2018-08-13T00:26:02.702Z,16.73
2018-08-13T00:27:02.673Z,16.75
2018-08-13T00:28:02.654Z,16.77
2018-08-13T00:29:02.644Z,16.75
2018-08-13T00:30:02.629Z,16.68
2018-08-13T00:31:02.647Z,16.70
2018-08-13T00:32:02.608Z,16.65
2018-08-13T00:33:02.592Z,16.62
2018-08-13T00:34:02.590Z,16.70
2018-08-13T00:35:02.575Z,16.60
2018-08-13T00:36:02.586Z,16.60
2018-08-13T00:37:02.559Z,16.62
2018-08-13T00:38:02.534Z,16.56
2018-08-13T00:39:02.526Z,16.60
2018-08-13T00:40:02.511Z,16.56
2018-08-13T00:41:02.531Z,16.45
2018-08-13T00:42:02.497Z,16.63
2018-08-13T00:43:02.482Z,16.53
2018-08-13T00:44:02.466Z,16.55
2018-08-13T00:45:02.459Z,16.55
2018-08-13T00:46:02.465Z,16.63
2018-08-13T00:47:02.431Z,16.67
2018-08-13T00:48:02.424Z,16.70
2018-08-13T00:49:02.414Z,16.73
2018-08-13T00:50:02.397Z,16.70
2018-08-13T00:51:02.457Z,16.75
2018-08-13T00:52:02.372Z,16.68
2018-08-13T00:53:02.357Z,16.63
2018-08-13T00:54:02.356Z,16.68
2018-08-13T00:55:02.364Z,16.65
2018-08-13T00:56:02.354Z,16.86
2018-08-13T00:57:02.310Z,16.73
2018-08-13T00:58:02.301Z,16.83
2018-08-13T00:59:02.302Z,16.70
2018-08-13T01:00:02.287Z,16.77
2018-08-13T01:01:02.299Z,16.78
2018-08-13T01:02:02.262Z,16.81
2018-08-13T01:03:02.245Z,16.83
2018-08-13T01:04:02.238Z,16.73
2018-08-13T01:05:02.217Z,16.74
2018-08-13T01:06:02.214Z,16.85
2018-08-13T01:07:02.226Z,16.77
2018-08-13T01:08:02.183Z,16.74
2018-08-13T01:09:02.180Z,16.68
2018-08-13T01:10:02.158Z,16.73
2018-08-13T01:11:02.151Z,16.85
2018-08-13T01:12:02.157Z,16.85
2018-08-13T01:13:02.131Z,16.73
2018-08-13T01:14:02.119Z,16.77
2018-08-13T01:15:02.107Z,16.71
2018-08-13T01:16:02.093Z,16.67
2018-08-13T01:17:02.108Z,16.85
2018-08-13T01:18:02.080Z,16.75
2018-08-13T01:19:02.064Z,16.75
2018-08-13T01:20:02.050Z,16.65
2018-08-13T01:21:02.041Z,16.74
2018-08-13T01:22:02.043Z,16.73
2018-08-13T01:23:02.009Z,16.67
2018-08-13T01:24:02.011Z,16.65
2018-08-13T01:25:01.986Z,16.60
2018-08-13T01:26:01.990Z,16.67
2018-08-13T01:27:01.991Z,16.70
2018-08-13T01:28:01.960Z,16.67
2018-08-13T01:29:01.947Z,16.63
2018-08-13T01:30:01.928Z,16.71
2018-08-13T01:31:01.918Z,16.77
2018-08-13T01:32:01.938Z,16.63
2018-08-13T01:33:01.895Z,16.73
2018-08-13T01:34:01.881Z,16.67
2018-08-13T01:35:01.869Z,16.71
2018-08-13T01:36:01.866Z,16.63
2018-08-13T01:37:01.870Z,16.63
2018-08-13T01:38:01.841Z,16.56
2018-08-13T01:39:01.824Z,16.59
2018-08-13T01:40:01.841Z,16.59
2018-08-13T01:41:01.800Z,16.55
2018-08-13T01:42:01.791Z,16.53
2018-08-13T01:43:01.777Z,16.50
2018-08-13T01:44:01.771Z,16.48
2018-08-13T01:45:01.777Z,16.50
2018-08-13T01:46:01.746Z,16.45
2018-08-13T01:47:01.727Z,16.44
2018-08-13T01:48:01.756Z,16.34
2018-08-13T01:49:01.704Z,16.42
2018-08-13T01:50:01.726Z,16.40
2018-08-13T01:51:01.684Z,16.41
2018-08-13T01:52:01.674Z,16.37
2018-08-13T01:53:01.675Z,16.38
2018-08-13T01:54:01.646Z,16.25
2018-08-13T01:55:01.659Z,16.22
2018-08-13T01:56:01.632Z,16.37
2018-08-13T01:57:01.616Z,16.20
2018-08-13T01:58:01.604Z,16.26
2018-08-13T01:59:01.593Z,16.20
2018-08-13T02:00:01.601Z,16.34
2018-08-13T02:01:01.565Z,16.20
2018-08-13T02:02:01.561Z,16.25
2018-08-13T02:03:01.549Z,16.34
2018-08-13T02:04:01.548Z,16.27
2018-08-13T02:05:01.545Z,16.20
2018-08-13T02:06:01.510Z,16.18
2018-08-13T02:07:01.498Z,16.33
2018-08-13T02:08:01.491Z,16.33
2018-08-13T02:09:01.481Z,16.31
2018-08-13T02:10:01.491Z,16.14
2018-08-13T02:11:01.450Z,16.33
2018-08-13T02:12:01.446Z,16.26
2018-08-13T02:13:01.432Z,16.22
2018-08-13T02:14:01.426Z,16.22
2018-08-13T02:15:01.425Z,16.25
2018-08-13T02:16:01.400Z,16.27
2018-08-13T02:17:01.386Z,16.12
2018-08-13T02:18:01.377Z,16.22
2018-08-13T02:19:01.378Z,16.33
2018-08-13T02:20:01.351Z,16.27
2018-08-13T02:21:01.358Z,16.23
2018-08-13T02:22:01.327Z,16.20
2018-08-13T02:23:01.316Z,16.22
2018-08-13T02:24:01.307Z,16.18
2018-08-13T02:25:01.290Z,16.25
2018-08-13T02:26:01.305Z,16.15
2018-08-13T02:27:01.271Z,16.09
2018-08-13T02:28:01.253Z,16.11
2018-08-13T02:29:01.242Z,16.27
2018-08-13T02:30:01.235Z,16.34
2018-08-13T02:31:01.241Z,16.22
2018-08-13T02:32:01.210Z,16.34
2018-08-13T02:33:01.196Z,16.33
2018-08-13T02:34:01.186Z,16.18
2018-08-13T02:35:01.176Z,16.23
2018-08-13T02:36:01.189Z,16.35
2018-08-13T02:37:01.146Z,16.23
2018-08-13T02:38:01.139Z,16.37
2018-08-13T02:39:01.188Z,16.18
2018-08-13T02:40:01.120Z,16.37
2018-08-13T02:41:01.132Z,16.18
2018-08-13T02:42:01.089Z,16.48
2018-08-13T02:43:01.087Z,16.44
2018-08-13T02:44:01.074Z,16.34
2018-08-13T02:45:01.070Z,16.27
2018-08-13T02:46:01.067Z,16.30
2018-08-13T02:47:01.031Z,16.25
2018-08-13T02:48:01.027Z,16.34
2018-08-13T02:49:01.006Z,16.42
2018-08-13T02:50:00.998Z,16.30
2018-08-13T02:51:01.017Z,16.42
2018-08-13T02:52:00.974Z,16.30
2018-08-13T02:53:00.969Z,16.34
2018-08-13T02:54:00.948Z,16.40
2018-08-13T02:55:00.942Z,16.38
2018-08-13T02:56:00.957Z,16.37
2018-08-13T02:57:00.919Z,16.42
2018-08-13T02:58:00.956Z,16.42
2018-08-13T02:59:00.899Z,16.49
2018-08-13T03:00:00.882Z,16.45
2018-08-13T03:01:00.898Z,16.52
2018-08-13T03:02:00.856Z,16.49
2018-08-13T03:03:00.845Z,16.53
2018-08-13T03:04:00.836Z,16.53
2018-08-13T03:05:00.828Z,16.52
2018-08-13T03:06:00.836Z,16.55
2018-08-13T03:07:00.803Z,16.48
2018-08-13T03:08:00.789Z,16.56
2018-08-13T03:09:00.774Z,16.63
2018-08-13T03:10:00.769Z,16.50
2018-08-13T03:11:00.773Z,16.63
2018-08-13T03:12:00.745Z,16.67
2018-08-13T03:13:00.728Z,16.68
2018-08-13T03:14:00.720Z,16.63
2018-08-13T03:15:00.700Z,16.67
2018-08-13T03:16:00.723Z,16.65
2018-08-13T03:17:00.678Z,16.78
2018-08-13T03:18:00.677Z,16.71
2018-08-13T03:19:00.662Z,16.62
2018-08-13T03:20:00.653Z,16.70
2018-08-13T03:21:00.662Z,16.73
2018-08-13T03:22:00.621Z,16.75
2018-08-13T03:23:00.616Z,16.65
2018-08-13T03:24:00.600Z,16.71
2018-08-13T03:25:00.595Z,16.68
2018-08-13T03:26:00.602Z,16.65
2018-08-13T03:27:00.561Z,16.65
2018-08-13T03:28:00.558Z,16.75
2018-08-13T03:29:00.544Z,16.62
2018-08-13T03:30:00.538Z,16.53
2018-08-13T03:31:00.541Z,16.63
2018-08-13T03:32:00.509Z,16.59
2018-08-13T03:33:00.500Z,16.49
2018-08-13T03:34:00.479Z,16.56
2018-08-13T03:35:00.480Z,16.49
2018-08-13T03:36:00.487Z,16.48
2018-08-13T03:37:00.452Z,16.44
2018-08-13T03:38:00.444Z,16.53
2018-08-13T03:39:00.427Z,16.42
2018-08-13T03:40:00.413Z,16.52
2018-08-13T03:41:00.421Z,16.49
2018-08-13T03:42:00.387Z,16.52
2018-08-13T03:43:00.379Z,16.49
2018-08-13T03:44:00.370Z,16.42
2018-08-13T03:45:00.360Z,16.38
2018-08-13T03:46:00.363Z,16.50
2018-08-13T03:47:00.328Z,16.50
2018-08-13T03:48:00.325Z,16.48
2018-08-13T03:49:00.312Z,16.44
2018-08-13T03:50:00.299Z,16.55
2018-08-13T03:51:00.304Z,16.38
2018-08-13T03:52:00.279Z,16.44
2018-08-13T03:53:00.261Z,16.48
2018-08-13T03:54:00.249Z,16.41
2018-08-13T03:55:00.244Z,16.48
2018-08-13T03:56:00.253Z,16.48
2018-08-13T03:57:00.223Z,16.45
2018-08-13T03:58:00.209Z,16.41
2018-08-13T03:59:00.189Z,16.53
2018-08-13T04:00:00.193Z,16.53
2018-08-13T04:01:00.189Z,16.58
2018-08-13T04:02:00.163Z,16.49
2018-08-13T04:03:00.146Z,16.50
2018-08-13T04:04:00.137Z,16.56
2018-08-13T04:05:00.123Z,16.49
2018-08-13T04:06:00.137Z,16.55
2018-08-13T04:07:00.100Z,16.59
2018-08-13T04:08:00.091Z,16.56
2018-08-13T04:09:00.082Z,16.67
2018-08-13T04:10:00.076Z,16.65
2018-08-13T04:11:00.082Z,16.73
2018-08-13T04:12:00.048Z,16.71
2018-08-13T04:13:00.142Z,16.73
2018-08-13T04:14:00.024Z,16.75
2018-08-13T04:15:00.009Z,16.75
2018-08-13T04:16:00.022Z,16.78
2018-08-13T04:16:59.983Z,16.80
2018-08-13T04:17:59.975Z,16.80
2018-08-13T04:18:59.963Z,16.74
2018-08-13T04:19:59.953Z,16.86
2018-08-13T04:20:59.955Z,16.81
2018-08-13T04:21:59.931Z,16.85
2018-08-13T04:22:59.912Z,16.85
2018-08-13T04:23:59.908Z,16.88
2018-08-13T04:24:59.887Z,16.80
2018-08-13T04:25:59.908Z,16.89
2018-08-13T04:26:59.870Z,16.92
2018-08-13T04:27:59.858Z,16.88
2018-08-13T04:28:59.844Z,16.86
2018-08-13T04:29:59.836Z,16.85
2018-08-13T04:30:59.848Z,16.90
2018-08-13T04:31:59.810Z,16.96
2018-08-13T04:32:59.797Z,16.89
2018-08-13T04:33:59.794Z,17.04
2018-08-13T04:34:59.782Z,17.00
2018-08-13T04:35:59.785Z,17.17
2018-08-13T04:36:59.752Z,17.23
2018-08-13T04:37:59.744Z,17.23
2018-08-13T04:38:59.731Z,17.26
2018-08-13T04:39:59.719Z,17.28
2018-08-13T04:40:59.739Z,17.35
2018-08-13T04:41:59.692Z,17.38
2018-08-13T04:42:59.680Z,17.36
2018-08-13T04:43:59.679Z,17.44
2018-08-13T04:44:59.663Z,17.57
2018-08-13T04:45:59.672Z,17.64
2018-08-13T04:46:59.649Z,17.64
2018-08-13T04:47:59.623Z,17.74
2018-08-13T04:48:59.623Z,17.70
2018-08-13T04:49:59.605Z,17.81
2018-08-13T04:50:59.613Z,17.79
2018-08-13T04:51:59.648Z,17.85
2018-08-13T04:52:59.574Z,17.79
2018-08-13T04:53:59.560Z,17.81
2018-08-13T04:54:59.553Z,17.84
2018-08-13T04:55:59.560Z,17.85
2018-08-13T04:56:59.522Z,17.89
2018-08-13T04:57:59.513Z,17.91
2018-08-13T04:58:59.553Z,17.91
2018-08-13T04:59:59.493Z,17.87
2018-08-13T05:00:59.503Z,17.92
2018-08-13T05:01:59.471Z,17.87
2018-08-13T05:02:59.484Z,17.94
2018-08-13T05:03:59.445Z,17.91
2018-08-13T05:04:59.437Z,17.99
2018-08-13T05:05:59.449Z,18.04
2018-08-13T05:06:59.411Z,18.06
2018-08-13T05:07:59.405Z,18.18
2018-08-13T05:08:59.390Z,18.10
2018-08-13T05:09:59.380Z,18.34
2018-08-13T05:10:59.392Z,18.27
2018-08-13T05:11:59.359Z,18.25
2018-08-13T05:12:59.349Z,18.12
2018-08-13T05:13:59.335Z,18.17
2018-08-13T05:14:59.321Z,18.34
2018-08-13T05:15:59.331Z,18.36
2018-08-13T05:16:59.300Z,18.42
2018-08-13T05:17:59.285Z,18.31
2018-08-13T05:18:59.277Z,18.24
2018-08-13T05:19:59.268Z,18.28
2018-08-13T05:20:59.275Z,18.24
2018-08-13T05:21:59.244Z,18.37
2018-08-13T05:22:59.226Z,18.34
2018-08-13T05:23:59.265Z,18.40
2018-08-13T05:24:59.203Z,18.29
2018-08-13T05:25:59.226Z,18.21
2018-08-13T05:26:59.181Z,18.22
2018-08-13T05:27:59.179Z,18.21
2018-08-13T05:28:59.159Z,18.24
2018-08-13T05:29:59.183Z,18.12
2018-08-13T05:30:59.235Z,18.22
2018-08-13T05:31:59.175Z,18.22
2018-08-13T05:32:59.141Z,18.09
2018-08-13T05:33:59.132Z,18.19
2018-08-13T05:34:59.113Z,18.24
2018-08-13T05:35:59.113Z,18.17
2018-08-13T05:36:59.072Z,18.27
2018-08-13T05:37:59.059Z,18.19
2018-08-13T05:38:59.047Z,18.21
2018-08-13T05:39:59.111Z,18.12
2018-08-13T05:40:59.053Z,18.28
2018-08-13T05:41:59.014Z,18.21
2018-08-13T05:42:59.001Z,18.22
2018-08-13T05:43:58.996Z,18.13
2018-08-13T05:44:59.028Z,18.22
2018-08-13T05:45:58.988Z,17.97
2018-08-13T05:46:58.951Z,18.15
2018-08-13T05:47:58.953Z,18.17
2018-08-13T05:48:58.936Z,18.18
2018-08-13T05:49:58.923Z,18.15
2018-08-13T05:50:59.068Z,18.17
2018-08-13T05:51:58.896Z,18.25
2018-08-13T05:52:58.938Z,18.21
2018-08-13T05:53:58.875Z,18.25
2018-08-13T05:54:58.864Z,18.15
2018-08-13T05:55:58.885Z,18.09
2018-08-13T05:56:59.001Z,18.17
2018-08-13T05:57:58.837Z,18.09
2018-08-13T05:58:58.822Z,18.07
2018-08-13T05:59:58.808Z,18.00
2018-08-13T06:00:58.816Z,18.07
2018-08-13T06:01:58.784Z,18.12
2018-08-13T06:02:58.821Z,18.02
2018-08-13T06:03:58.765Z,18.18
2018-08-13T06:04:58.751Z,18.17
2018-08-13T06:05:58.766Z,18.19
2018-08-13T06:06:58.727Z,18.09
2018-08-13T06:07:58.723Z,17.92
2018-08-13T06:08:58.704Z,18.06
2018-08-13T06:09:58.699Z,18.02
2018-08-13T06:10:58.712Z,17.94
2018-08-13T06:11:58.670Z,17.88
2018-08-13T06:12:58.667Z,18.02
2018-08-13T06:13:58.647Z,18.02
2018-08-13T06:14:58.638Z,18.04
2018-08-13T06:15:58.655Z,18.21
2018-08-13T06:16:58.621Z,18.15
2018-08-13T06:17:58.627Z,18.15
2018-08-13T06:18:58.596Z,18.19
2018-08-13T06:19:58.582Z,18.21
2018-08-13T06:20:58.595Z,18.19
2018-08-13T06:21:58.559Z,18.18
2018-08-13T06:22:58.674Z,18.24
2018-08-13T06:23:58.542Z,18.25
2018-08-13T06:24:58.544Z,18.22
2018-08-13T06:25:58.538Z,18.29
2018-08-13T06:26:58.500Z,18.25
2018-08-13T06:27:58.492Z,18.18
2018-08-13T06:28:58.488Z,18.06
2018-08-13T06:29:58.471Z,18.10
2018-08-13T06:30:58.483Z,18.04
2018-08-13T06:31:58.448Z,17.89
2018-08-13T06:32:58.433Z,17.85
2018-08-13T06:33:58.480Z,17.74
2018-08-13T06:34:58.414Z,17.59
2018-08-13T06:35:58.421Z,17.50
2018-08-13T06:36:58.385Z,17.33
2018-08-13T06:37:58.376Z,17.44
2018-08-13T06:38:58.364Z,17.40
2018-08-13T06:39:58.365Z,17.17
2018-08-13T06:40:58.365Z,17.08
2018-08-13T06:41:58.333Z,16.93
2018-08-13T06:42:58.316Z,16.90
2018-08-13T06:43:58.314Z,16.83
2018-08-13T06:44:58.293Z,16.75
2018-08-13T06:45:58.313Z,16.63
2018-08-13T06:46:58.293Z,16.58
2018-08-13T06:47:58.266Z,16.49
2018-08-13T06:48:58.251Z,16.41
2018-08-13T06:49:58.237Z,16.35
2018-08-13T06:50:58.255Z,16.41
2018-08-13T06:51:58.209Z,16.37
2018-08-13T06:52:58.209Z,16.37
2018-08-13T06:53:58.195Z,16.40
2018-08-13T06:54:58.175Z,16.33
2018-08-13T06:55:58.195Z,16.34
2018-08-13T06:56:58.153Z,16.16
2018-08-13T06:57:58.150Z,16.41
2018-08-13T06:58:58.133Z,16.15
2018-08-13T06:59:58.123Z,16.38
2018-08-13T07:00:58.131Z,16.37
2018-08-13T07:01:58.100Z,16.30
2018-08-13T07:02:58.086Z,16.26
2018-08-13T07:03:58.077Z,16.34
2018-08-13T07:04:58.067Z,16.38
2018-08-13T07:05:58.081Z,16.27
2018-08-13T07:06:58.040Z,16.38
2018-08-13T07:07:58.033Z,16.44
2018-08-13T07:08:58.015Z,16.48
2018-08-13T07:09:58.011Z,16.44
2018-08-13T07:10:58.018Z,16.50
2018-08-13T07:11:57.985Z,16.50
2018-08-13T07:12:57.980Z,16.63
2018-08-13T07:13:57.957Z,16.58
2018-08-13T07:14:57.944Z,16.49
2018-08-13T07:15:57.966Z,16.55
2018-08-13T07:16:57.928Z,16.59
2018-08-13T07:17:57.914Z,16.63
2018-08-13T07:18:57.899Z,16.67
2018-08-13T07:19:57.897Z,16.73
2018-08-13T07:20:57.905Z,16.77
2018-08-13T07:21:57.920Z,16.73
2018-08-13T07:22:57.866Z,16.74
2018-08-13T07:23:57.847Z,16.80
2018-08-13T07:24:57.846Z,16.90
2018-08-13T07:25:57.843Z,16.83
2018-08-13T07:26:57.806Z,16.88
2018-08-13T07:27:57.830Z,16.90
2018-08-13T07:28:57.792Z,16.92
2018-08-13T07:29:57.775Z,16.96
2018-08-13T07:30:57.787Z,17.00
2018-08-13T07:31:57.756Z,16.99
2018-08-13T07:32:57.746Z,16.98
2018-08-13T07:33:57.728Z,17.03
2018-08-13T07:34:57.732Z,17.13
2018-08-13T07:35:57.735Z,16.99
2018-08-13T07:36:57.694Z,17.13
2018-08-13T07:37:57.684Z,17.10
2018-08-13T07:38:57.706Z,17.08
2018-08-13T07:39:57.671Z,17.18
2018-08-13T07:40:57.677Z,17.18
2018-08-13T07:41:57.636Z,17.06
2018-08-13T07:42:57.635Z,17.13
2018-08-13T07:43:57.610Z,17.20
2018-08-13T07:44:57.608Z,17.26
2018-08-13T07:45:57.609Z,17.22
2018-08-13T07:46:57.581Z,17.25
2018-08-13T07:47:57.567Z,17.23
2018-08-13T07:48:57.562Z,17.20
2018-08-13T07:49:57.540Z,17.25
2018-08-13T07:50:57.552Z,17.25
2018-08-13T07:51:57.546Z,17.29
2018-08-13T07:52:57.514Z,17.25
2018-08-13T07:53:57.498Z,17.25
2018-08-13T07:54:57.498Z,17.33
2018-08-13T07:55:57.500Z,17.23
2018-08-13T07:56:57.470Z,17.28
2018-08-13T07:57:57.454Z,17.23
2018-08-13T07:58:57.436Z,17.18
2018-08-13T07:59:57.439Z,17.26
2018-08-13T08:00:57.451Z,17.32
2018-08-13T08:01:57.406Z,17.17
2018-08-13T08:02:57.396Z,17.28
2018-08-13T08:03:57.385Z,17.30
2018-08-13T08:04:57.377Z,17.33
2018-08-13T08:05:57.381Z,17.30
2018-08-13T08:06:57.349Z,17.25
2018-08-13T08:07:57.347Z,17.23
2018-08-13T08:08:57.338Z,17.32
2018-08-13T08:09:57.318Z,17.17
2018-08-13T08:10:57.329Z,17.35
2018-08-13T08:11:57.297Z,17.43
2018-08-13T08:12:57.289Z,17.32
2018-08-13T08:13:57.275Z,17.44
2018-08-13T08:14:57.263Z,17.40
2018-08-13T08:15:57.266Z,17.46
2018-08-13T08:16:57.234Z,17.51
2018-08-13T08:17:57.226Z,17.51
2018-08-13T08:18:57.212Z,17.53
2018-08-13T08:19:57.201Z,17.55
2018-08-13T08:20:57.206Z,17.59
2018-08-13T08:21:57.239Z,17.67
2018-08-13T08:22:57.160Z,17.71
2018-08-13T08:23:57.174Z,17.63
2018-08-13T08:24:57.140Z,17.64
2018-08-13T08:25:57.157Z,17.70
2018-08-13T08:26:57.123Z,17.69
2018-08-13T08:27:57.109Z,17.69
2018-08-13T08:28:57.101Z,17.69
2018-08-13T08:29:57.079Z,17.63
2018-08-13T08:30:57.100Z,17.74
2018-08-13T08:31:57.060Z,17.73
2018-08-13T08:32:57.053Z,17.66
2018-08-13T08:33:57.042Z,17.67
2018-08-13T08:34:57.027Z,17.69
2018-08-13T08:35:57.041Z,17.66
2018-08-13T08:36:57.001Z,17.59
2018-08-13T08:37:56.991Z,17.62
2018-08-13T08:38:56.987Z,17.59
2018-08-13T08:39:56.963Z,17.62
2018-08-13T08:40:57.005Z,17.67
2018-08-13T08:41:56.951Z,17.66
2018-08-13T08:42:56.928Z,17.66
2018-08-13T08:43:56.925Z,17.66
2018-08-13T08:44:56.910Z,17.73
2018-08-13T08:45:56.943Z,17.54
2018-08-13T08:46:56.884Z,17.73
2018-08-13T08:47:56.874Z,17.62
2018-08-13T08:48:56.861Z,17.66
2018-08-13T08:49:56.852Z,17.63
2018-08-13T08:50:56.865Z,17.51
2018-08-13T08:51:56.825Z,17.48
2018-08-13T08:52:56.816Z,17.43
2018-08-13T08:53:56.803Z,17.46
2018-08-13T08:54:56.794Z,17.50
2018-08-13T08:55:56.808Z,17.29
2018-08-13T08:56:56.770Z,17.30
2018-08-13T08:57:56.755Z,17.41
2018-08-13T08:58:56.750Z,17.33
2018-08-13T08:59:56.730Z,17.38
2018-08-13T09:00:56.763Z,17.33
2018-08-13T09:01:56.708Z,17.33
2018-08-13T09:02:56.696Z,17.40
2018-08-13T09:03:56.692Z,17.43
2018-08-13T09:04:56.674Z,17.47
2018-08-13T09:05:56.717Z,17.43
2018-08-13T09:06:56.652Z,17.50
2018-08-13T09:07:56.643Z,17.46
2018-08-13T09:08:56.630Z,17.47
2018-08-13T09:09:56.619Z,17.38
2018-08-13T09:10:56.630Z,17.43
2018-08-13T09:11:56.596Z,17.46
2018-08-13T09:12:56.582Z,17.41
2018-08-13T09:13:56.575Z,17.51
2018-08-13T09:14:56.555Z,17.50
2018-08-13T09:15:56.575Z,17.67
2018-08-13T09:16:56.535Z,17.53
2018-08-13T09:17:56.530Z,17.62
2018-08-13T09:18:56.557Z,17.54
2018-08-13T09:19:56.505Z,17.67
2018-08-13T09:20:56.527Z,17.69
2018-08-13T09:21:56.473Z,17.62
2018-08-13T09:22:56.462Z,17.62
2018-08-13T09:23:56.461Z,17.71
2018-08-13T09:24:56.447Z,17.74
2018-08-13T09:25:56.429Z,17.76
2018-08-13T09:26:56.439Z,17.82
2018-08-13T09:27:56.414Z,17.89
2018-08-13T09:28:56.403Z,17.94
2018-08-13T09:29:56.385Z,18.07
2018-08-13T09:30:56.383Z,18.09
2018-08-13T09:31:56.388Z,18.02
2018-08-13T09:32:56.355Z,18.22
2018-08-13T09:33:56.338Z,18.36
2018-08-13T09:34:56.330Z,18.49
2018-08-13T09:35:56.317Z,18.64
2018-08-13T09:36:56.328Z,18.92
2018-08-13T09:37:56.300Z,19.11
2018-08-13T09:38:56.283Z,19.18
2018-08-13T09:39:56.307Z,19.25
2018-08-13T09:40:56.266Z,19.40
2018-08-13T09:41:56.284Z,19.60
2018-08-13T09:42:56.242Z,19.60
2018-08-13T09:43:56.222Z,19.75
2018-08-13T09:44:56.215Z,19.97
2018-08-13T09:45:56.201Z,19.90
2018-08-13T09:46:56.188Z,20.05
2018-08-13T09:47:56.210Z,20.24
2018-08-13T09:48:56.171Z,20.21
2018-08-13T09:49:56.172Z,20.38
2018-08-13T09:50:56.151Z,20.42
2018-08-13T09:51:56.132Z,20.56
2018-08-13T09:52:56.158Z,20.74
2018-08-13T09:53:56.235Z,20.68
2018-08-13T09:54:56.101Z,20.90
2018-08-13T09:55:56.111Z,21.01
2018-08-13T09:56:56.078Z,21.16
2018-08-13T09:57:56.101Z,21.17
2018-08-13T09:58:56.055Z,21.19
2018-08-13T09:59:56.051Z,21.23
2018-08-13T10:00:56.039Z,21.32
2018-08-13T10:01:56.024Z,21.16
2018-08-13T10:02:56.048Z,21.24
2018-08-13T10:03:56.004Z,21.17
2018-08-13T10:04:55.995Z,21.08
2018-08-13T10:05:55.975Z,21.04
2018-08-13T10:06:55.964Z,21.13
2018-08-13T10:07:55.993Z,21.06
2018-08-13T10:08:55.941Z,20.95
2018-08-13T10:09:55.940Z,21.05
2018-08-13T10:10:55.955Z,21.06
2018-08-13T10:11:55.915Z,21.19
2018-08-13T10:12:55.904Z,21.27
2018-08-13T10:13:55.915Z,21.35
2018-08-13T10:14:55.886Z,21.30
2018-08-13T10:15:55.873Z,21.42
2018-08-13T10:16:55.858Z,21.34
2018-08-13T10:17:55.895Z,21.46
2018-08-13T10:18:55.862Z,21.51
2018-08-13T10:19:55.828Z,21.42
2018-08-13T10:20:55.809Z,21.32
2018-08-13T10:21:55.807Z,21.34
2018-08-13T10:22:55.794Z,21.51
2018-08-13T10:23:55.797Z,21.45
2018-08-13T10:24:55.767Z,21.29
2018-08-13T10:25:55.757Z,21.51
2018-08-13T10:26:55.746Z,21.57
2018-08-13T10:27:55.732Z,21.48
2018-08-13T10:28:55.739Z,21.53
2018-08-13T10:29:55.718Z,21.50
2018-08-13T10:30:55.695Z,21.42
2018-08-13T10:31:55.691Z,21.45
2018-08-13T10:32:55.679Z,21.41
2018-08-13T10:33:55.687Z,21.48
2018-08-13T10:34:55.652Z,21.60
2018-08-13T10:35:55.643Z,21.51
2018-08-13T10:36:55.634Z,21.61
2018-08-13T10:37:55.614Z,21.71
2018-08-13T10:38:55.629Z,21.69
2018-08-13T10:39:55.596Z,21.75
2018-08-13T10:40:55.581Z,21.75
2018-08-13T10:41:55.574Z,21.82
2018-08-13T10:42:55.556Z,21.85
2018-08-13T10:43:55.576Z,21.88
2018-08-13T10:44:55.582Z,21.88
2018-08-13T10:45:55.530Z,22.02
2018-08-13T10:46:55.516Z,21.98
2018-08-13T10:47:55.509Z,22.22
2018-08-13T10:48:55.518Z,22.52
2018-08-13T10:49:55.478Z,22.80
2018-08-13T10:50:55.474Z,23.12
2018-08-13T10:51:55.460Z,23.40
2018-08-13T10:52:55.458Z,23.60
2018-08-13T10:53:55.470Z,23.61
2018-08-13T10:54:55.429Z,23.68
2018-08-13T10:55:55.414Z,23.83
2018-08-13T10:56:55.399Z,23.76
2018-08-13T10:57:55.402Z,24.00
2018-08-13T10:58:55.412Z,23.90
2018-08-13T10:59:55.370Z,24.05
2018-08-13T11:00:55.359Z,24.07
2018-08-13T11:01:55.356Z,24.16
2018-08-13T11:02:55.435Z,24.04
2018-08-13T11:03:55.354Z,24.04
2018-08-13T11:04:55.322Z,24.05
2018-08-13T11:05:55.301Z,24.29
2018-08-13T11:06:55.294Z,24.32
2018-08-13T11:07:55.297Z,24.22
2018-08-13T11:08:55.300Z,24.07
2018-08-13T11:09:55.267Z,24.08
2018-08-13T11:10:55.250Z,24.04
2018-08-13T11:11:55.244Z,23.95
2018-08-13T11:12:55.239Z,23.89
2018-08-13T11:13:55.245Z,23.87
2018-08-13T11:14:55.203Z,23.75
2018-08-13T11:15:55.204Z,23.61
2018-08-13T11:16:55.180Z,23.45
2018-08-13T11:17:55.182Z,23.20
2018-08-13T11:18:55.181Z,23.05
2018-08-13T11:19:55.155Z,22.97
2018-08-13T11:20:55.144Z,22.94
2018-08-13T11:21:55.134Z,22.67
2018-08-13T11:22:55.128Z,22.60
2018-08-13T11:23:55.130Z,22.62
2018-08-13T11:24:55.094Z,22.52
2018-08-13T11:25:55.085Z,22.41
2018-08-13T11:26:55.074Z,22.16
2018-08-13T11:27:55.058Z,22.13
2018-08-13T11:28:55.074Z,22.07
2018-08-13T11:29:55.034Z,22.12
2018-08-13T11:30:55.031Z,22.06
2018-08-13T11:31:55.011Z,21.76
2018-08-13T11:32:55.009Z,21.74
2018-08-13T11:33:55.010Z,21.48
2018-08-13T11:34:55.016Z,21.39
2018-08-13T11:35:54.964Z,21.30
2018-08-13T11:36:54.963Z,21.21
2018-08-13T11:37:54.948Z,21.06
2018-08-13T11:38:54.954Z,20.98
2018-08-13T11:39:54.921Z,20.98
2018-08-13T11:40:54.908Z,20.91
2018-08-13T11:41:54.906Z,20.99
2018-08-13T11:42:54.887Z,20.95
2018-08-13T11:43:54.902Z,21.14
2018-08-13T11:44:54.864Z,21.05
2018-08-13T11:45:54.856Z,21.13
2018-08-13T11:46:54.840Z,21.19
2018-08-13T11:47:54.839Z,21.34
2018-08-13T11:48:54.842Z,21.35
2018-08-13T11:49:54.815Z,21.32
2018-08-13T11:50:54.801Z,21.42
2018-08-13T11:51:54.782Z,21.59
2018-08-13T11:52:54.770Z,21.64
2018-08-13T11:53:54.791Z,21.75
2018-08-13T11:54:54.753Z,21.76
2018-08-13T11:55:54.738Z,21.83
2018-08-13T11:56:54.737Z,21.98
2018-08-13T11:57:54.714Z,21.98
2018-08-13T11:58:54.734Z,22.13
2018-08-13T11:59:54.696Z,22.35
2018-08-13T12:00:54.702Z,22.59
2018-08-13T12:01:54.691Z,22.52
2018-08-13T12:02:54.668Z,22.60
2018-08-13T12:03:54.670Z,22.60
2018-08-13T12:04:54.641Z,22.57
2018-08-13T12:05:54.632Z,22.56
2018-08-13T12:06:54.623Z,22.62
2018-08-13T12:07:54.608Z,22.44
2018-08-13T12:08:54.621Z,22.41
2018-08-13T12:09:54.585Z,22.41
2018-08-13T12:10:54.573Z,22.39
2018-08-13T12:11:54.560Z,22.54
2018-08-13T12:12:54.546Z,22.54
2018-08-13T12:13:54.559Z,22.50
2018-08-13T12:14:54.528Z,22.62
2018-08-13T12:15:54.517Z,22.56
2018-08-13T12:16:54.504Z,22.47
2018-08-13T12:17:54.502Z,22.52
2018-08-13T12:18:54.505Z,22.57
2018-08-13T12:19:54.476Z,22.87
2018-08-13T12:20:54.456Z,22.89
2018-08-13T12:21:54.454Z,23.01
2018-08-13T12:22:54.442Z,23.31
2018-08-13T12:23:54.448Z,23.46
2018-08-13T12:24:54.415Z,23.47
2018-08-13T12:25:54.405Z,23.57
2018-08-13T12:26:54.394Z,23.62
2018-08-13T12:27:54.383Z,23.65
2018-08-13T12:28:54.400Z,23.68
2018-08-13T12:29:54.359Z,23.65
2018-08-13T12:30:54.354Z,23.46
2018-08-13T12:31:54.340Z,23.35
2018-08-13T12:32:54.329Z,23.29
2018-08-13T12:33:54.339Z,23.27
2018-08-13T12:34:54.311Z,23.17
2018-08-13T12:35:54.291Z,23.15
2018-08-13T12:36:54.288Z,23.31
2018-08-13T12:37:54.268Z,23.22
2018-08-13T12:38:54.283Z,23.35
2018-08-13T12:39:54.253Z,23.12
2018-08-13T12:40:54.245Z,23.29
2018-08-13T12:41:54.230Z,23.17
2018-08-13T12:42:54.219Z,22.99
2018-08-13T12:43:54.233Z,23.04
2018-08-13T12:44:54.190Z,22.82
2018-08-13T12:45:54.189Z,22.74
2018-08-13T12:46:54.176Z,22.59
2018-08-13T12:47:54.171Z,22.60
2018-08-13T12:48:54.180Z,22.46
2018-08-13T12:49:54.133Z,22.49
2018-08-13T12:50:54.149Z,22.25
2018-08-13T12:51:54.113Z,22.25